Lake Village, AR (71653)

11:00 PM CST on February 07, 2016 (GMT -0600)
Lake Hall Rd near Fawnwood Comm Ctr | | Change Station
CLOSE
Current Station
Personal Weather Station
Location: Lake Village, AR
Elevation: 118 ft
Nearby Weather Stations

Elev 118 ft 33.28 °N, 91.24 °W | Updated 3 minutes ago

Clear
Clear
49.6 °F
Feels Like 47 °F
N
7.0
Wind Variable Wind from West
Gusts 10.0 mph

Today
High -- | Low -- °F
--% Chance of Precip.
Yesterday
High -- | Low -- °F
Precip. -- in
Pressure 30.07 in
Visibility 10.0 miles
Clouds Clear
Windchill 47 °F
Dew Point 38 °F
Humidity 64%
Rainfall 0.00 in
Snow Depth Not available.
6:56 AM 5:42 PM
Waning Crescent, 0% visible
METAR KGLH 080453Z AUTO 25011KT 10SM CLR 11/M02 A3005 RMK AO2 SLP182 T01061017
Pressure 30.07 in
Visibility 10.0 miles
Clouds Clear
Windchill 47 °F
Dew Point 38 °F
Humidity 64%
Rainfall 0.00 in
Snow Depth Not available.
6:56 AM 5:42 PM
Waning Crescent, 0% visible
METAR KGLH 080453Z AUTO 25011KT 10SM CLR 11/M02 A3005 RMK AO2 SLP182 T01061017

10-Day Weather Forecast

Almanac

Astronomy

Feb. 07, 2016 Rise Set
Actual Time
Civil Twilight
Nautical Twilight
Astronomical Twilight
Moon
Length of Visible Light
Length of Day
Tomorrow will be .
, % of the Moon is Illuminated

Today's Extremes

State Highs State Lows

Community

WunderPhotos

Upload Photos

1,891,382 photos uploaded!

WunderBlog® & News

Nearby

Air Quality

  Air Quality AQ Index Pollutant
Not available.

Snow Depth

Station Depth Elevation

Earthquake Activity

City Distance Mag. Time & Date
Minimum magnitude displayed is 2.5.

Coastal Water Temperatures

Place Temperature

Stations

Nearby Weather Stations

Station Location Temp. Windchill Dew Point Humidity Wind Precip. Elev Updated Type
                   

Watches & Warnings

There are currently no watches in effect.